sensor_id;sensor_type;location;lat;lon;timestamp;temperature;humidity
67249;SHT31;63247;54.300;18.592;2024-03-08T00:01:35;-1.53;99.99
67249;SHT31;63247;54.300;18.592;2024-03-08T00:04:01;-1.53;99.99
67249;SHT31;63247;54.300;18.592;2024-03-08T00:06:26;-1.43;99.99
67249;SHT31;63247;54.300;18.592;2024-03-08T00:08:52;-1.45;99.99
67249;SHT31;63247;54.300;18.592;2024-03-08T00:11:17;-1.51;99.99
67249;SHT31;63247;54.300;18.592;2024-03-08T00:13:42;-1.38;99.99
67249;SHT31;63247;54.300;18.592;2024-03-08T00:16:10;-1.46;99.99
67249;SHT31;63247;54.300;18.592;2024-03-08T00:18:35;-1.51;99.99
67249;SHT31;63247;54.300;18.592;2024-03-08T00:21:00;-1.51;99.99
67249;SHT31;63247;54.300;18.592;2024-03-08T00:23:26;-1.52;99.99
67249;SHT31;63247;54.300;18.592;2024-03-08T00:25:53;-1.56;99.99
67249;SHT31;63247;54.300;18.592;2024-03-08T00:28:20;-1.58;99.99
67249;SHT31;63247;54.300;18.592;2024-03-08T00:30:45;-1.60;99.99
67249;SHT31;63247;54.300;18.592;2024-03-08T00:33:11;-1.60;99.99
67249;SHT31;63247;54.300;18.592;2024-03-08T00:35:37;-1.58;99.99
67249;SHT31;63247;54.300;18.592;2024-03-08T00:38:02;-1.56;99.99
67249;SHT31;63247;54.300;18.592;2024-03-08T00:40:28;-1.64;99.99
67249;SHT31;63247;54.300;18.592;2024-03-08T00:42:54;-1.64;99.99
67249;SHT31;63247;54.300;18.592;2024-03-08T00:45:19;-1.67;99.99
67249;SHT31;63247;54.300;18.592;2024-03-08T00:47:45;-1.66;99.99
67249;SHT31;63247;54.300;18.592;2024-03-08T00:50:10;-1.67;99.99
67249;SHT31;63247;54.300;18.592;2024-03-08T00:52:37;-1.64;99.99
67249;SHT31;63247;54.300;18.592;2024-03-08T00:55:02;-1.63;99.99
67249;SHT31;63247;54.300;18.592;2024-03-08T00:57:28;-1.69;99.99
67249;SHT31;63247;54.300;18.592;2024-03-08T00:59:53;-1.79;99.99
67249;SHT31;63247;54.300;18.592;2024-03-08T01:02:19;-1.74;99.99
67249;SHT31;63247;54.300;18.592;2024-03-08T01:04:46;-1.73;99.99
67249;SHT31;63247;54.300;18.592;2024-03-08T01:07:12;-1.42;99.99
67249;SHT31;63247;54.300;18.592;2024-03-08T01:09:37;-1.56;99.99
67249;SHT31;63247;54.300;18.592;2024-03-08T01:12:03;-1.62;99.99
67249;SHT31;63247;54.300;18.592;2024-03-08T01:14:28;-1.70;99.99
67249;SHT31;63247;54.300;18.592;2024-03-08T01:16:55;-1.77;99.99
67249;SHT31;63247;54.300;18.592;2024-03-08T01:19:20;-1.67;99.99
67249;SHT31;63247;54.300;18.592;2024-03-08T01:21:46;-1.69;99.99
67249;SHT31;63247;54.300;18.592;2024-03-08T01:24:11;-1.72;99.99
67249;SHT31;63247;54.300;18.592;2024-03-08T01:26:37;-1.70;99.99
67249;SHT31;63247;54.300;18.592;2024-03-08T01:29:02;-1.69;99.99
67249;SHT31;63247;54.300;18.592;2024-03-08T01:31:32;-1.72;99.99
67249;SHT31;63247;54.300;18.592;2024-03-08T01:33:58;-1.73;99.99
67249;SHT31;63247;54.300;18.592;2024-03-08T01:36:23;-1.79;99.99
67249;SHT31;63247;54.300;18.592;2024-03-08T01:38:50;-1.77;99.99
67249;SHT31;63247;54.300;18.592;2024-03-08T01:41:15;-1.79;99.99
67249;SHT31;63247;54.300;18.592;2024-03-08T01:43:43;-1.81;99.99
67249;SHT31;63247;54.300;18.592;2024-03-08T01:46:09;-1.81;99.99
67249;SHT31;63247;54.300;18.592;2024-03-08T01:48:36;-1.80;99.99
67249;SHT31;63247;54.300;18.592;2024-03-08T01:51:02;-1.77;99.99
67249;SHT31;63247;54.300;18.592;2024-03-08T01:53:29;-1.80;99.99
67249;SHT31;63247;54.300;18.592;2024-03-08T01:55:57;-1.79;99.99
67249;SHT31;63247;54.300;18.592;2024-03-08T01:58:23;-1.73;99.99
67249;SHT31;63247;54.300;18.592;2024-03-08T02:00:50;-1.81;99.99
67249;SHT31;63247;54.300;18.592;2024-03-08T02:03:16;-1.83;99.99
67249;SHT31;63247;54.300;18.592;2024-03-08T02:05:42;-1.87;99.99
67249;SHT31;63247;54.300;18.592;2024-03-08T02:08:08;-1.89;99.99
67249;SHT31;63247;54.300;18.592;2024-03-08T02:10:40;-1.89;99.99
67249;SHT31;63247;54.300;18.592;2024-03-08T02:13:07;-1.89;99.99
67249;SHT31;63247;54.300;18.592;2024-03-08T02:18:16;-1.94;99.99
67249;SHT31;63247;54.300;18.592;2024-03-08T02:20:43;-1.95;99.99
67249;SHT31;63247;54.300;18.592;2024-03-08T02:23:08;-1.90;99.99
67249;SHT31;63247;54.300;18.592;2024-03-08T02:25:34;-1.95;99.99
67249;SHT31;63247;54.300;18.592;2024-03-08T02:28:00;-1.93;99.99
67249;SHT31;63247;54.300;18.592;2024-03-08T02:30:26;-1.94;99.99
67249;SHT31;63247;54.300;18.592;2024-03-08T02:32:55;-1.91;99.99
67249;SHT31;63247;54.300;18.592;2024-03-08T02:35:20;-1.98;99.99
67249;SHT31;63247;54.300;18.592;2024-03-08T02:37:46;-1.94;99.99
67249;SHT31;63247;54.300;18.592;2024-03-08T02:40:13;-1.97;99.99
67249;SHT31;63247;54.300;18.592;2024-03-08T02:42:38;-2.00;99.99
67249;SHT31;63247;54.300;18.592;2024-03-08T02:45:04;-2.11;99.99
67249;SHT31;63247;54.300;18.592;2024-03-08T02:47:31;-2.12;99.99
67249;SHT31;63247;54.300;18.592;2024-03-08T02:49:56;-2.10;99.99
67249;SHT31;63247;54.300;18.592;2024-03-08T02:52:22;-2.15;99.99
67249;SHT31;63247;54.300;18.592;2024-03-08T02:54:48;-2.15;99.99
67249;SHT31;63247;54.300;18.592;2024-03-08T02:57:13;-2.17;99.99
67249;SHT31;63247;54.300;18.592;2024-03-08T02:59:40;-2.20;99.99
67249;SHT31;63247;54.300;18.592;2024-03-08T03:02:05;-2.24;99.99
67249;SHT31;63247;54.300;18.592;2024-03-08T03:04:32;-2.30;99.99
67249;SHT31;63247;54.300;18.592;2024-03-08T03:07:00;-2.28;99.99
67249;SHT31;63247;54.300;18.592;2024-03-08T03:09:26;-2.30;99.99
67249;SHT31;63247;54.300;18.592;2024-03-08T03:11:53;-2.20;99.99
67249;SHT31;63247;54.300;18.592;2024-03-08T03:14:21;-2.21;99.99
67249;SHT31;63247;54.300;18.592;2024-03-08T03:16:46;-2.22;99.99
67249;SHT31;63247;54.300;18.592;2024-03-08T03:19:12;-2.22;99.99
67249;SHT31;63247;54.300;18.592;2024-03-08T03:21:37;-2.20;99.99
67249;SHT31;63247;54.300;18.592;2024-03-08T03:24:03;-2.24;99.99
67249;SHT31;63247;54.300;18.592;2024-03-08T03:26:30;-2.25;99.99
67249;SHT31;63247;54.300;18.592;2024-03-08T03:28:56;-2.27;99.99
67249;SHT31;63247;54.300;18.592;2024-03-08T03:31:22;-2.30;99.99
67249;SHT31;63247;54.300;18.592;2024-03-08T03:33:49;-2.30;99.99
67249;SHT31;63247;54.300;18.592;2024-03-08T03:36:17;-2.38;99.99
67249;SHT31;63247;54.300;18.592;2024-03-08T03:38:43;-2.35;99.99
67249;SHT31;63247;54.300;18.592;2024-03-08T03:41:08;-2.32;99.99
67249;SHT31;63247;54.300;18.592;2024-03-08T03:43:39;-2.35;99.99
67249;SHT31;63247;54.300;18.592;2024-03-08T03:46:07;-2.41;99.99
67249;SHT31;63247;54.300;18.592;2024-03-08T03:48:35;-2.48;99.99
67249;SHT31;63247;54.300;18.592;2024-03-08T03:51:01;-2.56;99.99
67249;SHT31;63247;54.300;18.592;2024-03-08T03:53:26;-2.59;99.99
67249;SHT31;63247;54.300;18.592;2024-03-08T03:55:52;-2.68;99.99
67249;SHT31;63247;54.300;18.592;2024-03-08T03:58:17;-2.69;99.99
67249;SHT31;63247;54.300;18.592;2024-03-08T04:00:48;-2.66;99.99
67249;SHT31;63247;54.300;18.592;2024-03-08T04:03:13;-2.76;99.99
67249;SHT31;63247;54.300;18.592;2024-03-08T04:05:39;-2.75;99.99
67249;SHT31;63247;54.300;18.592;2024-03-08T04:08:04;-2.73;99.99
67249;SHT31;63247;54.300;18.592;2024-03-08T04:10:30;-2.69;99.99
67249;SHT31;63247;54.300;18.592;2024-03-08T04:12:55;-2.76;99.99
67249;SHT31;63247;54.300;18.592;2024-03-08T04:15:22;-2.76;99.99
67249;SHT31;63247;54.300;18.592;2024-03-08T04:17:48;-2.80;99.99
67249;SHT31;63247;54.300;18.592;2024-03-08T04:20:13;-2.83;99.99
67249;SHT31;63247;54.300;18.592;2024-03-08T04:22:39;-2.79;99.99
67249;SHT31;63247;54.300;18.592;2024-03-08T04:25:06;-2.73;99.99
67249;SHT31;63247;54.300;18.592;2024-03-08T04:27:32;-2.69;99.99
67249;SHT31;63247;54.300;18.592;2024-03-08T04:29:58;-2.70;99.99
67249;SHT31;63247;54.300;18.592;2024-03-08T04:32:24;-2.66;99.99
67249;SHT31;63247;54.300;18.592;2024-03-08T04:34:50;-2.60;99.99
67249;SHT31;63247;54.300;18.592;2024-03-08T04:37:15;-2.62;99.99
67249;SHT31;63247;54.300;18.592;2024-03-08T04:39:46;-2.60;99.99
67249;SHT31;63247;54.300;18.592;2024-03-08T04:42:12;-2.56;99.99
67249;SHT31;63247;54.300;18.592;2024-03-08T04:44:38;-2.56;99.99
67249;SHT31;63247;54.300;18.592;2024-03-08T04:47:04;-2.53;99.99
67249;SHT31;63247;54.300;18.592;2024-03-08T04:49:32;-2.49;99.99
67249;SHT31;63247;54.300;18.592;2024-03-08T04:52:01;-2.38;99.99
67249;SHT31;63247;54.300;18.592;2024-03-08T04:54:29;-2.35;99.99
67249;SHT31;63247;54.300;18.592;2024-03-08T04:56:55;-2.32;99.99
67249;SHT31;63247;54.300;18.592;2024-03-08T04:59:21;-2.31;99.99
67249;SHT31;63247;54.300;18.592;2024-03-08T05:01:46;-2.35;99.99
67249;SHT31;63247;54.300;18.592;2024-03-08T05:04:13;-2.28;99.99
67249;SHT31;63247;54.300;18.592;2024-03-08T05:06:38;-2.31;99.99
67249;SHT31;63247;54.300;18.592;2024-03-08T05:09:03;-2.18;99.99
67249;SHT31;63247;54.300;18.592;2024-03-08T05:11:42;-2.20;99.99
67249;SHT31;63247;54.300;18.592;2024-03-08T05:14:09;-2.22;99.99
67249;SHT31;63247;54.300;18.592;2024-03-08T05:16:34;-2.28;99.99
67249;SHT31;63247;54.300;18.592;2024-03-08T05:19:00;-2.14;99.99
67249;SHT31;63247;54.300;18.592;2024-03-08T05:21:25;-2.15;99.99
67249;SHT31;63247;54.300;18.592;2024-03-08T05:23:51;-2.10;99.99
67249;SHT31;63247;54.300;18.592;2024-03-08T05:26:16;-1.98;99.99
67249;SHT31;63247;54.300;18.592;2024-03-08T05:28:42;-2.00;99.99
67249;SHT31;63247;54.300;18.592;2024-03-08T05:31:08;-1.80;99.99
67249;SHT31;63247;54.300;18.592;2024-03-08T05:33:33;-1.28;99.99
67249;SHT31;63247;54.300;18.592;2024-03-08T05:36:02;-0.81;99.99
67249;SHT31;63247;54.300;18.592;2024-03-08T05:38:28;-0.67;99.99
67249;SHT31;63247;54.300;18.592;2024-03-08T05:40:54;-0.94;99.99
67249;SHT31;63247;54.300;18.592;2024-03-08T05:43:20;-1.11;99.99
67249;SHT31;63247;54.300;18.592;2024-03-08T05:45:46;-1.21;99.99
67249;SHT31;63247;54.300;18.592;2024-03-08T05:48:11;-1.31;99.99
67249;SHT31;63247;54.300;18.592;2024-03-08T05:50:38;-1.34;99.99
67249;SHT31;63247;54.300;18.592;2024-03-08T05:53:04;-1.28;99.99
67249;SHT31;63247;54.300;18.592;2024-03-08T05:55:33;-1.32;99.99
67249;SHT31;63247;54.300;18.592;2024-03-08T05:58:01;-1.24;99.99
67249;SHT31;63247;54.300;18.592;2024-03-08T06:00:27;-1.15;99.99
67249;SHT31;63247;54.300;18.592;2024-03-08T06:02:52;-1.07;99.99
67249;SHT31;63247;54.300;18.592;2024-03-08T06:05:19;-1.00;99.99
67249;SHT31;63247;54.300;18.592;2024-03-08T06:07:44;-0.94;99.99
67249;SHT31;63247;54.300;18.592;2024-03-08T06:10:10;-0.81;99.99
67249;SHT31;63247;54.300;18.592;2024-03-08T06:12:37;-0.72;99.99
67249;SHT31;63247;54.300;18.592;2024-03-08T06:15:09;-0.66;99.99
67249;SHT31;63247;54.300;18.592;2024-03-08T06:17:38;-0.64;99.99
67249;SHT31;63247;54.300;18.592;2024-03-08T06:20:04;-0.43;99.99
67249;SHT31;63247;54.300;18.592;2024-03-08T06:22:38;-0.30;99.99
67249;SHT31;63247;54.300;18.592;2024-03-08T06:25:09;-0.04;99.99
67249;SHT31;63247;54.300;18.592;2024-03-08T06:27:42;0.81;99.99
67249;SHT31;63247;54.300;18.592;2024-03-08T06:30:08;0.72;99.99
67249;SHT31;63247;54.300;18.592;2024-03-08T06:32:37;0.82;99.99
67249;SHT31;63247;54.300;18.592;2024-03-08T06:35:06;1.25;99.99
67249;SHT31;63247;54.300;18.592;2024-03-08T06:37:35;1.15;99.99
67249;SHT31;63247;54.300;18.592;2024-03-08T06:40:01;1.40;99.99
67249;SHT31;63247;54.300;18.592;2024-03-08T06:42:28;1.32;99.99
67249;SHT31;63247;54.300;18.592;2024-03-08T06:44:54;2.52;99.99
67249;SHT31;63247;54.300;18.592;2024-03-08T06:47:21;3.45;99.99
67249;SHT31;63247;54.300;18.592;2024-03-08T06:49:46;4.96;97.08
67249;SHT31;63247;54.300;18.592;2024-03-08T06:52:12;5.07;97.92
67249;SHT31;63247;54.300;18.592;2024-03-08T06:54:38;3.81;99.37
67249;SHT31;63247;54.300;18.592;2024-03-08T06:57:04;4.18;99.03
67249;SHT31;63247;54.300;18.592;2024-03-08T06:59:33;5.65;99.66
67249;SHT31;63247;54.300;18.592;2024-03-08T07:02:01;5.77;97.10
67249;SHT31;63247;54.300;18.592;2024-03-08T07:04:27;7.23;96.93
67249;SHT31;63247;54.300;18.592;2024-03-08T07:06:58;6.88;95.59
67249;SHT31;63247;54.300;18.592;2024-03-08T07:09:24;7.88;96.45
67249;SHT31;63247;54.300;18.592;2024-03-08T07:11:50;7.98;92.39
67249;SHT31;63247;54.300;18.592;2024-03-08T07:14:21;8.99;89.05
67249;SHT31;63247;54.300;18.592;2024-03-08T07:16:47;9.12;90.46
67249;SHT31;63247;54.300;18.592;2024-03-08T07:19:13;8.99;84.60
67249;SHT31;63247;54.300;18.592;2024-03-08T07:21:39;9.22;82.00
67249;SHT31;63247;54.300;18.592;2024-03-08T07:24:05;10.42;79.45
67249;SHT31;63247;54.300;18.592;2024-03-08T07:26:45;11.04;77.21
67249;SHT31;63247;54.300;18.592;2024-03-08T07:29:18;11.38;76.67
67249;SHT31;63247;54.300;18.592;2024-03-08T07:31:44;11.80;76.14
67249;SHT31;63247;54.300;18.592;2024-03-08T07:34:17;11.28;74.02
67249;SHT31;63247;54.300;18.592;2024-03-08T07:36:43;12.41;71.47
67249;SHT31;63247;54.300;18.592;2024-03-08T07:39:08;10.83;73.59
67249;SHT31;63247;54.300;18.592;2024-03-08T07:41:38;11.70;73.98
67249;SHT31;63247;54.300;18.592;2024-03-08T07:44:06;13.02;70.10
67249;SHT31;63247;54.300;18.592;2024-03-08T07:46:32;12.00;72.47
67249;SHT31;63247;54.300;18.592;2024-03-08T07:48:59;11.85;72.65
67249;SHT31;63247;54.300;18.592;2024-03-08T07:51:25;11.91;72.46
67249;SHT31;63247;54.300;18.592;2024-03-08T07:53:51;11.98;71.70
67249;SHT31;63247;54.300;18.592;2024-03-08T07:56:17;12.48;72.40
67249;SHT31;63247;54.300;18.592;2024-03-08T07:58:44;12.86;71.60
67249;SHT31;63247;54.300;18.592;2024-03-08T08:01:19;13.16;70.41
67249;SHT31;63247;54.300;18.592;2024-03-08T08:03:45;12.33;71.44
67249;SHT31;63247;54.300;18.592;2024-03-08T08:06:11;13.12;70.14
67249;SHT31;63247;54.300;18.592;2024-03-08T08:08:44;12.55;71.25
67249;SHT31;63247;54.300;18.592;2024-03-08T08:11:10;12.78;69.94
67249;SHT31;63247;54.300;18.592;2024-03-08T08:13:37;12.97;70.07
67249;SHT31;63247;54.300;18.592;2024-03-08T08:16:03;13.00;70.96
67249;SHT31;63247;54.300;18.592;2024-03-08T08:18:30;12.49;69.05
67249;SHT31;63247;54.300;18.592;2024-03-08T08:20:56;13.98;67.87
67249;SHT31;63247;54.300;18.592;2024-03-08T08:23:21;13.60;68.62
67249;SHT31;63247;54.300;18.592;2024-03-08T08:25:47;14.80;67.57
67249;SHT31;63247;54.300;18.592;2024-03-08T08:28:18;14.54;66.67
67249;SHT31;63247;54.300;18.592;2024-03-08T08:30:44;13.61;68.53
67249;SHT31;63247;54.300;18.592;2024-03-08T08:33:10;12.17;70.63
67249;SHT31;63247;54.300;18.592;2024-03-08T08:35:38;10.67;73.34
67249;SHT31;63247;54.300;18.592;2024-03-08T08:38:04;10.32;74.92
67249;SHT31;63247;54.300;18.592;2024-03-08T08:40:30;9.73;76.80
67249;SHT31;63247;54.300;18.592;2024-03-08T08:42:58;10.18;75.84
67249;SHT31;63247;54.300;18.592;2024-03-08T08:45:23;9.65;76.92
67249;SHT31;63247;54.300;18.592;2024-03-08T08:47:49;8.50;79.58
67249;SHT31;63247;54.300;18.592;2024-03-08T08:50:15;10.69;76.15
67249;SHT31;63247;54.300;18.592;2024-03-08T08:52:41;10.02;76.88
67249;SHT31;63247;54.300;18.592;2024-03-08T08:55:09;9.57;76.82
67249;SHT31;63247;54.300;18.592;2024-03-08T08:57:39;13.13;72.52
67249;SHT31;63247;54.300;18.592;2024-03-08T09:00:05;10.13;75.50
67249;SHT31;63247;54.300;18.592;2024-03-08T09:02:33;8.63;81.15
67249;SHT31;63247;54.300;18.592;2024-03-08T09:05:00;9.93;78.57
67249;SHT31;63247;54.300;18.592;2024-03-08T09:07:26;8.46;80.15
67249;SHT31;63247;54.300;18.592;2024-03-08T09:09:53;7.95;81.73
67249;SHT31;63247;54.300;18.592;2024-03-08T09:12:22;6.83;83.21
67249;SHT31;63247;54.300;18.592;2024-03-08T09:14:48;6.62;85.07
67249;SHT31;63247;54.300;18.592;2024-03-08T09:17:14;7.52;82.84
67249;SHT31;63247;54.300;18.592;2024-03-08T09:19:43;10.80;76.60
67249;SHT31;63247;54.300;18.592;2024-03-08T09:22:08;10.16;78.03
67249;SHT31;63247;54.300;18.592;2024-03-08T09:24:34;12.48;74.29
67249;SHT31;63247;54.300;18.592;2024-03-08T09:26:59;12.93;71.02
67249;SHT31;63247;54.300;18.592;2024-03-08T09:29:25;14.23;69.69
67249;SHT31;63247;54.300;18.592;2024-03-08T09:31:50;15.32;67.75
67249;SHT31;63247;54.300;18.592;2024-03-08T09:34:16;15.40;64.50
67249;SHT31;63247;54.300;18.592;2024-03-08T09:36:44;14.20;67.88
67249;SHT31;63247;54.300;18.592;2024-03-08T09:39:09;11.56;72.75
67249;SHT31;63247;54.300;18.592;2024-03-08T09:41:34;10.97;75.10
67249;SHT31;63247;54.300;18.592;2024-03-08T09:44:00;11.61;73.26
67249;SHT31;63247;54.300;18.592;2024-03-08T09:46:26;12.56;68.69
67249;SHT31;63247;54.300;18.592;2024-03-08T09:48:55;12.65;68.02
67249;SHT31;63247;54.300;18.592;2024-03-08T09:51:27;13.20;67.56
67249;SHT31;63247;54.300;18.592;2024-03-08T09:53:53;12.99;65.64
67249;SHT31;63247;54.300;18.592;2024-03-08T09:56:21;13.20;66.68
67249;SHT31;63247;54.300;18.592;2024-03-08T09:58:46;15.59;61.01
67249;SHT31;63247;54.300;18.592;2024-03-08T10:01:41;14.67;62.41
67249;SHT31;63247;54.300;18.592;2024-03-08T10:04:07;13.86;63.78
67249;SHT31;63247;54.300;18.592;2024-03-08T10:06:32;13.10;61.76
67249;SHT31;63247;54.300;18.592;2024-03-08T10:08:58;14.38;63.01
67249;SHT31;63247;54.300;18.592;2024-03-08T10:11:26;15.40;60.20
67249;SHT31;63247;54.300;18.592;2024-03-08T10:13:52;13.34;62.38
67249;SHT31;63247;54.300;18.592;2024-03-08T10:16:17;15.43;60.80
67249;SHT31;63247;54.300;18.592;2024-03-08T10:18:45;16.00;57.76
67249;SHT31;63247;54.300;18.592;2024-03-08T10:21:11;16.79;56.09
67249;SHT31;63247;54.300;18.592;2024-03-08T10:23:37;16.00;57.50
67249;SHT31;63247;54.300;18.592;2024-03-08T10:26:12;14.57;56.18
67249;SHT31;63247;54.300;18.592;2024-03-08T10:28:47;14.81;59.10
67249;SHT31;63247;54.300;18.592;2024-03-08T10:31:16;14.04;57.71
67249;SHT31;63247;54.300;18.592;2024-03-08T10:33:42;16.25;55.90
67249;SHT31;63247;54.300;18.592;2024-03-08T10:36:08;13.61;57.18
67249;SHT31;63247;54.300;18.592;2024-03-08T10:38:38;13.54;58.06
67249;SHT31;63247;54.300;18.592;2024-03-08T10:41:07;13.72;55.85
67249;SHT31;63247;54.300;18.592;2024-03-08T10:44:00;13.68;55.69
67249;SHT31;63247;54.300;18.592;2024-03-08T10:49:54;12.64;58.33
67249;SHT31;63247;54.300;18.592;2024-03-08T10:52:20;10.63;59.83
67249;SHT31;63247;54.300;18.592;2024-03-08T10:54:47;10.79;58.71
67249;SHT31;63247;54.300;18.592;2024-03-08T10:57:14;10.50;57.59
67249;SHT31;63247;54.300;18.592;2024-03-08T10:59:43;10.73;57.37
67249;SHT31;63247;54.300;18.592;2024-03-08T11:02:11;10.35;58.48
67249;SHT31;63247;54.300;18.592;2024-03-08T11:04:37;10.12;61.45
67249;SHT31;63247;54.300;18.592;2024-03-08T11:07:03;9.75;63.81
67249;SHT31;63247;54.300;18.592;2024-03-08T11:09:36;10.52;62.02
67249;SHT31;63247;54.300;18.592;2024-03-08T11:12:27;8.98;61.38
67249;SHT31;63247;54.300;18.592;2024-03-08T11:15:10;8.47;60.97
67249;SHT31;63247;54.300;18.592;2024-03-08T11:20:10;9.02;62.50
67249;SHT31;63247;54.300;18.592;2024-03-08T11:22:41;9.78;61.58
67249;SHT31;63247;54.300;18.592;2024-03-08T11:28:16;8.36;63.32
67249;SHT31;63247;54.300;18.592;2024-03-08T11:33:25;8.77;64.29
67249;SHT31;63247;54.300;18.592;2024-03-08T11:35:51;9.57;65.99
67249;SHT31;63247;54.300;18.592;2024-03-08T11:38:17;9.50;64.88
67249;SHT31;63247;54.300;18.592;2024-03-08T11:40:46;9.18;65.37
67249;SHT31;63247;54.300;18.592;2024-03-08T11:43:15;8.47;65.15
67249;SHT31;63247;54.300;18.592;2024-03-08T11:45:41;7.38;66.38
67249;SHT31;63247;54.300;18.592;2024-03-08T11:48:07;7.48;67.93
67249;SHT31;63247;54.300;18.592;2024-03-08T11:50:32;7.72;68.93
67249;SHT31;63247;54.300;18.592;2024-03-08T11:53:04;7.41;80.79
67249;SHT31;63247;54.300;18.592;2024-03-08T11:55:33;7.10;81.12
67249;SHT31;63247;54.300;18.592;2024-03-08T11:58:03;6.45;83.49
67249;SHT31;63247;54.300;18.592;2024-03-08T12:00:28;6.48;83.32
67249;SHT31;63247;54.300;18.592;2024-03-08T12:03:07;6.85;83.83
67249;SHT31;63247;54.300;18.592;2024-03-08T12:05:35;7.02;83.20
67249;SHT31;63247;54.300;18.592;2024-03-08T12:08:02;7.20;82.26
67249;SHT31;63247;54.300;18.592;2024-03-08T12:10:27;7.28;82.40
67249;SHT31;63247;54.300;18.592;2024-03-08T12:12:54;6.88;83.14
67249;SHT31;63247;54.300;18.592;2024-03-08T12:15:22;7.38;82.60
67249;SHT31;63247;54.300;18.592;2024-03-08T12:17:50;7.46;82.46
67249;SHT31;63247;54.300;18.592;2024-03-08T12:20:20;7.16;81.85
67249;SHT31;63247;54.300;18.592;2024-03-08T12:22:50;6.62;83.77
67249;SHT31;63247;54.300;18.592;2024-03-08T12:25:17;6.68;84.81
67249;SHT31;63247;54.300;18.592;2024-03-08T12:27:43;6.20;85.96
67249;SHT31;63247;54.300;18.592;2024-03-08T12:30:25;6.30;85.26
67249;SHT31;63247;54.300;18.592;2024-03-08T12:32:59;6.00;85.74
67249;SHT31;63247;54.300;18.592;2024-03-08T12:35:26;6.09;86.13
67249;SHT31;63247;54.300;18.592;2024-03-08T12:37:53;5.86;86.81
67249;SHT31;63247;54.300;18.592;2024-03-08T12:40:19;6.27;85.68
67249;SHT31;63247;54.300;18.592;2024-03-08T12:42:50;6.92;84.05
67249;SHT31;63247;54.300;18.592;2024-03-08T12:45:15;6.93;84.56
67249;SHT31;63247;54.300;18.592;2024-03-08T12:47:41;6.52;84.53
67249;SHT31;63247;54.300;18.592;2024-03-08T12:50:08;6.64;84.38
67249;SHT31;63247;54.300;18.592;2024-03-08T12:52:34;6.17;85.79
67249;SHT31;63247;54.300;18.592;2024-03-08T12:55:00;6.28;85.96
67249;SHT31;63247;54.300;18.592;2024-03-08T12:57:28;6.23;86.34
67249;SHT31;63247;54.300;18.592;2024-03-08T12:59:54;6.04;85.90
67249;SHT31;63247;54.300;18.592;2024-03-08T13:02:19;5.66;86.41
67249;SHT31;63247;54.300;18.592;2024-03-08T13:04:46;5.77;86.52
67249;SHT31;63247;54.300;18.592;2024-03-08T13:07:21;5.96;87.73
67249;SHT31;63247;54.300;18.592;2024-03-08T13:09:46;6.68;85.92
67249;SHT31;63247;54.300;18.592;2024-03-08T13:12:12;6.65;85.80
67249;SHT31;63247;54.300;18.592;2024-03-08T13:14:37;6.10;85.59
67249;SHT31;63247;54.300;18.592;2024-03-08T13:17:02;6.09;86.67
67249;SHT31;63247;54.300;18.592;2024-03-08T13:19:29;5.90;87.44
67249;SHT31;63247;54.300;18.592;2024-03-08T13:21:55;6.06;86.65
67249;SHT31;63247;54.300;18.592;2024-03-08T13:24:21;5.72;87.08
67249;SHT31;63247;54.300;18.592;2024-03-08T13:26:47;5.96;87.23
67249;SHT31;63247;54.300;18.592;2024-03-08T13:29:12;6.10;86.39
67249;SHT31;63247;54.300;18.592;2024-03-08T13:31:39;5.28;87.97
67249;SHT31;63247;54.300;18.592;2024-03-08T13:34:05;5.83;88.71
67249;SHT31;63247;54.300;18.592;2024-03-08T13:36:30;5.58;87.80
67249;SHT31;63247;54.300;18.592;2024-03-08T13:39:04;5.23;89.50
67249;SHT31;63247;54.300;18.592;2024-03-08T13:41:35;5.44;89.08
67249;SHT31;63247;54.300;18.592;2024-03-08T13:44:01;5.49;89.28
67249;SHT31;63247;54.300;18.592;2024-03-08T13:46:26;5.08;89.61
67249;SHT31;63247;54.300;18.592;2024-03-08T13:48:52;5.08;90.23
67249;SHT31;63247;54.300;18.592;2024-03-08T13:51:19;5.54;89.29
67249;SHT31;63247;54.300;18.592;2024-03-08T13:53:47;5.45;89.48
67249;SHT31;63247;54.300;18.592;2024-03-08T13:56:12;5.24;90.17
67249;SHT31;63247;54.300;18.592;2024-03-08T13:58:40;4.79;91.10
67249;SHT31;63247;54.300;18.592;2024-03-08T14:01:05;4.68;91.38
67249;SHT31;63247;54.300;18.592;2024-03-08T14:03:36;4.75;91.16
67249;SHT31;63247;54.300;18.592;2024-03-08T14:06:02;4.79;90.84
67249;SHT31;63247;54.300;18.592;2024-03-08T14:08:29;4.59;91.86
67249;SHT31;63247;54.300;18.592;2024-03-08T14:10:55;4.45;92.21
67249;SHT31;63247;54.300;18.592;2024-03-08T14:13:20;4.32;92.03
67249;SHT31;63247;54.300;18.592;2024-03-08T14:15:46;4.41;92.28
67249;SHT31;63247;54.300;18.592;2024-03-08T14:18:11;4.37;92.47
67249;SHT31;63247;54.300;18.592;2024-03-08T14:20:38;4.24;92.88
67249;SHT31;63247;54.300;18.592;2024-03-08T14:23:04;4.21;93.33
67249;SHT31;63247;54.300;18.592;2024-03-08T14:25:33;4.56;92.78
67249;SHT31;63247;54.300;18.592;2024-03-08T14:27:58;4.41;92.74
67249;SHT31;63247;54.300;18.592;2024-03-08T14:30:32;4.12;93.64
67249;SHT31;63247;54.300;18.592;2024-03-08T14:33:07;4.20;93.85
67249;SHT31;63247;54.300;18.592;2024-03-08T14:35:34;4.21;93.76
67249;SHT31;63247;54.300;18.592;2024-03-08T14:38:00;4.01;94.18
67249;SHT31;63247;54.300;18.592;2024-03-08T14:40:25;4.05;94.25
67249;SHT31;63247;54.300;18.592;2024-03-08T14:42:51;3.84;94.58
67249;SHT31;63247;54.300;18.592;2024-03-08T14:45:17;3.70;94.74
67249;SHT31;63247;54.300;18.592;2024-03-08T14:47:48;3.74;95.26
67249;SHT31;63247;54.300;18.592;2024-03-08T14:50:19;3.93;95.10
67249;SHT31;63247;54.300;18.592;2024-03-08T14:52:45;3.97;94.70
67249;SHT31;63247;54.300;18.592;2024-03-08T14:55:16;3.52;95.30
67249;SHT31;63247;54.300;18.592;2024-03-08T14:57:42;3.59;95.49
67249;SHT31;63247;54.300;18.592;2024-03-08T15:00:11;3.36;95.81
67249;SHT31;63247;54.300;18.592;2024-03-08T15:02:43;3.35;96.24
67249;SHT31;63247;54.300;18.592;2024-03-08T15:05:08;3.39;96.61
67249;SHT31;63247;54.300;18.592;2024-03-08T15:07:39;3.53;96.29
67249;SHT31;63247;54.300;18.592;2024-03-08T15:10:06;3.58;96.03
67249;SHT31;63247;54.300;18.592;2024-03-08T15:12:36;3.05;96.84
67249;SHT31;63247;54.300;18.592;2024-03-08T15:15:02;3.07;97.67
67249;SHT31;63247;54.300;18.592;2024-03-08T15:17:27;3.01;97.23
67249;SHT31;63247;54.300;18.592;2024-03-08T15:19:53;3.18;97.52
67249;SHT31;63247;54.300;18.592;2024-03-08T15:22:19;2.87;97.73
67249;SHT31;63247;54.300;18.592;2024-03-08T15:24:44;2.68;98.42
67249;SHT31;63247;54.300;18.592;2024-03-08T15:27:10;2.63;98.75
67249;SHT31;63247;54.300;18.592;2024-03-08T15:29:35;2.87;98.21
67249;SHT31;63247;54.300;18.592;2024-03-08T15:32:02;2.66;98.22
67249;SHT31;63247;54.300;18.592;2024-03-08T15:34:28;2.68;98.71
67249;SHT31;63247;54.300;18.592;2024-03-08T15:36:53;2.42;99.50